createdAt,value
2022-12-11T00:00:22.715Z,100.00
2022-12-11T00:02:49.566Z,100.00
2022-12-11T00:05:16.464Z,100.00
2022-12-11T00:07:43.528Z,100.00
2022-12-11T00:10:10.492Z,100.00
2022-12-11T00:12:37.278Z,100.00
2022-12-11T00:15:04.408Z,100.00
2022-12-11T00:17:31.337Z,100.00
2022-12-11T00:20:01.048Z,100.00
2022-12-11T00:22:30.259Z,100.00
2022-12-11T00:24:57.154Z,100.00
2022-12-11T00:27:24.285Z,100.00
2022-12-11T00:29:51.223Z,100.00
2022-12-11T00:32:17.974Z,100.00
2022-12-11T00:34:44.824Z,100.00
2022-12-11T00:37:11.654Z,100.00
2022-12-11T00:39:39.904Z,100.00
2022-12-11T00:42:07.861Z,100.00
2022-12-11T00:44:35.163Z,100.00
2022-12-11T00:47:02.379Z,100.00
2022-12-11T00:49:29.860Z,100.00
2022-12-11T00:51:56.713Z,100.00
2022-12-11T00:54:23.551Z,100.00
2022-12-11T00:56:50.945Z,100.00
2022-12-11T00:59:17.833Z,100.00
2022-12-11T01:01:44.817Z,100.00
2022-12-11T01:04:11.704Z,100.00
2022-12-11T01:06:39.307Z,100.00
2022-12-11T01:09:25.321Z,100.00
2022-12-11T01:11:52.257Z,100.00
2022-12-11T01:14:19.194Z,100.00
2022-12-11T01:16:46.084Z,100.00
2022-12-11T01:19:13.010Z,100.00
2022-12-11T01:21:39.863Z,100.00
2022-12-11T01:24:06.920Z,100.00
2022-12-11T01:26:33.743Z,100.00
2022-12-11T01:29:01.436Z,100.00
2022-12-11T01:31:28.320Z,100.00
2022-12-11T01:33:56.058Z,100.00
2022-12-11T01:36:24.249Z,100.00
2022-12-11T01:38:51.250Z,100.00
2022-12-11T01:41:19.038Z,100.00
2022-12-11T01:44:08.454Z,100.00
2022-12-11T01:46:39.492Z,100.00
2022-12-11T01:49:11.204Z,100.00
2022-12-11T01:51:47.808Z,100.00
2022-12-11T01:54:17.436Z,100.00
2022-12-11T01:56:45.405Z,100.00
2022-12-11T01:59:15.647Z,100.00
2022-12-11T02:01:55.166Z,100.00
2022-12-11T02:04:23.212Z,100.00
2022-12-11T02:06:52.039Z,100.00
2022-12-11T02:09:33.960Z,100.00
2022-12-11T02:12:27.605Z,100.00
2022-12-11T02:15:27.032Z,100.00
2022-12-11T02:18:07.376Z,100.00
2022-12-11T02:20:55.569Z,100.00
2022-12-11T02:23:42.695Z,100.00
2022-12-11T02:26:09.484Z,100.00
2022-12-11T02:28:42.044Z,100.00
2022-12-11T02:31:24.338Z,100.00
2022-12-11T02:34:01.096Z,100.00
2022-12-11T02:36:32.406Z,100.00
2022-12-11T02:39:01.350Z,100.00
2022-12-11T02:41:29.889Z,100.00
2022-12-11T02:43:58.316Z,100.00
2022-12-11T02:46:27.252Z,100.00
2022-12-11T02:48:55.895Z,100.00
2022-12-11T02:51:30.785Z,100.00
2022-12-11T02:53:59.447Z,100.00
2022-12-11T02:56:57.380Z,100.00
2022-12-11T02:59:30.101Z,100.00
2022-12-11T03:01:57.071Z,100.00
2022-12-11T03:04:25.001Z,100.00
2022-12-11T03:06:56.519Z,100.00
2022-12-11T03:09:23.380Z,100.00
2022-12-11T03:11:50.308Z,100.00
2022-12-11T03:14:17.174Z,100.00
2022-12-11T03:17:05.160Z,100.00
2022-12-11T03:19:39.994Z,100.00
2022-12-11T03:22:18.916Z,100.00
2022-12-11T03:25:04.361Z,100.00
2022-12-11T03:27:40.948Z,100.00
2022-12-11T03:30:12.786Z,100.00
2022-12-11T03:32:49.342Z,100.00
2022-12-11T03:35:29.410Z,100.00
2022-12-11T03:38:01.427Z,100.00
2022-12-11T03:40:31.504Z,100.00
2022-12-11T03:42:58.686Z,100.00
2022-12-11T03:45:28.131Z,100.00
2022-12-11T03:47:58.182Z,100.00
2022-12-11T03:50:30.306Z,100.00
2022-12-11T03:52:58.323Z,100.00
2022-12-11T03:55:26.656Z,100.00
2022-12-11T03:57:53.459Z,100.00
2022-12-11T04:00:21.290Z,100.00
2022-12-11T04:03:13.621Z,100.00
2022-12-11T04:05:47.163Z,100.00
2022-12-11T04:08:15.159Z,100.00
2022-12-11T04:10:42.459Z,100.00
2022-12-11T04:13:10.619Z,100.00
2022-12-11T04:15:38.800Z,100.00
2022-12-11T04:18:24.677Z,100.00
2022-12-11T04:21:14.851Z,100.00
2022-12-11T04:24:00.146Z,100.00
2022-12-11T04:26:27.270Z,100.00
2022-12-11T04:28:54.426Z,100.00
2022-12-11T04:31:22.816Z,100.00
2022-12-11T04:33:49.971Z,100.00
2022-12-11T04:36:17.058Z,100.00
2022-12-11T04:38:44.388Z,100.00
2022-12-11T04:41:13.831Z,100.00
2022-12-11T04:43:41.284Z,100.00
2022-12-11T04:46:17.394Z,100.00
2022-12-11T04:48:45.027Z,100.00
2022-12-11T04:51:12.379Z,100.00
2022-12-11T04:53:39.247Z,100.00
2022-12-11T04:56:12.001Z,100.00
2022-12-11T04:58:39.651Z,100.00
2022-12-11T05:01:21.780Z,100.00
2022-12-11T05:03:49.247Z,100.00
2022-12-11T05:06:16.249Z,100.00
2022-12-11T05:08:43.999Z,100.00
2022-12-11T05:11:14.823Z,100.00
2022-12-11T05:13:42.141Z,100.00
2022-12-11T05:16:12.098Z,100.00
2022-12-11T05:18:39.099Z,100.00
2022-12-11T05:21:09.127Z,100.00
2022-12-11T05:23:36.493Z,100.00
2022-12-11T05:26:07.113Z,100.00
2022-12-11T05:28:36.565Z,100.00
2022-12-11T05:31:11.650Z,100.00
2022-12-11T05:33:38.541Z,100.00
2022-12-11T05:36:06.984Z,100.00
2022-12-11T05:38:33.957Z,100.00
2022-12-11T05:41:04.406Z,100.00
2022-12-11T05:43:33.491Z,100.00
2022-12-11T05:46:15.435Z,100.00
2022-12-11T05:48:43.596Z,100.00
2022-12-11T05:51:16.174Z,100.00
2022-12-11T05:53:45.098Z,100.00
2022-12-11T05:56:25.015Z,100.00
2022-12-11T05:58:52.723Z,100.00
2022-12-11T06:01:25.140Z,100.00
2022-12-11T06:03:52.253Z,100.00
2022-12-11T06:06:19.245Z,100.00
2022-12-11T06:08:46.155Z,100.00
2022-12-11T06:11:20.901Z,100.00
2022-12-11T06:13:50.702Z,100.00
2022-12-11T06:16:17.568Z,100.00
2022-12-11T06:18:45.451Z,100.00
2022-12-11T06:21:17.043Z,100.00
2022-12-11T06:23:45.999Z,100.00
2022-12-11T06:26:14.499Z,100.00
2022-12-11T06:28:41.511Z,100.00
2022-12-11T06:31:08.667Z,100.00
2022-12-11T06:33:36.200Z,100.00
2022-12-11T06:36:09.285Z,100.00
2022-12-11T06:38:36.613Z,100.00
2022-12-11T06:41:04.957Z,100.00
2022-12-11T06:43:33.453Z,100.00
2022-12-11T06:46:04.387Z,100.00
2022-12-11T06:48:31.496Z,100.00
2022-12-11T06:50:58.408Z,100.00
2022-12-11T06:53:25.334Z,100.00
2022-12-11T06:55:52.111Z,100.00
2022-12-11T06:58:18.991Z,100.00
2022-12-11T07:00:46.040Z,100.00
2022-12-11T07:03:13.812Z,100.00
2022-12-11T07:05:44.296Z,100.00
2022-12-11T07:08:11.213Z,100.00
2022-12-11T07:10:38.046Z,100.00
2022-12-11T07:13:04.839Z,100.00
2022-12-11T07:15:32.377Z,100.00
2022-12-11T07:18:00.709Z,100.00
2022-12-11T07:20:27.751Z,100.00
2022-12-11T07:22:54.956Z,100.00
2022-12-11T07:25:21.792Z,100.00
2022-12-11T07:27:48.662Z,100.00
2022-12-11T07:30:15.815Z,100.00
2022-12-11T07:32:42.694Z,100.00
2022-12-11T07:35:09.987Z,100.00
2022-12-11T07:37:39.708Z,100.00
2022-12-11T07:40:08.018Z,100.00
2022-12-11T07:42:35.228Z,100.00
2022-12-11T07:45:02.029Z,99.77
2022-12-11T07:47:29.378Z,98.58
2022-12-11T07:49:56.953Z,98.94
2022-12-11T07:52:23.802Z,99.01
2022-12-11T07:54:51.032Z,98.32
2022-12-11T07:57:17.869Z,98.74
2022-12-11T07:59:44.801Z,97.89
2022-12-11T08:02:12.059Z,96.65
2022-12-11T08:04:39.257Z,97.31
2022-12-11T08:07:06.068Z,97.02
2022-12-11T08:09:33.482Z,96.47
2022-12-11T08:12:00.318Z,96.71
2022-12-11T08:14:27.157Z,94.96
2022-12-11T08:16:54.035Z,95.37
2022-12-11T08:19:20.863Z,94.04
2022-12-11T08:21:47.661Z,94.70
2022-12-11T08:24:16.440Z,94.62
2022-12-11T08:26:43.296Z,93.59
2022-12-11T08:29:10.128Z,93.89
2022-12-11T08:31:36.993Z,93.20
2022-12-11T08:34:03.761Z,92.91
2022-12-11T08:36:30.698Z,93.28
2022-12-11T08:38:57.714Z,93.14
2022-12-11T08:41:27.460Z,93.16
2022-12-11T08:43:55.553Z,91.81
2022-12-11T08:46:24.934Z,91.40
2022-12-11T08:48:52.204Z,92.79
2022-12-11T08:51:22.453Z,92.45
2022-12-11T08:53:50.270Z,91.98
2022-12-11T08:56:20.424Z,91.55
2022-12-11T08:58:47.756Z,91.12
2022-12-11T09:01:18.648Z,92.03
2022-12-11T09:03:45.543Z,92.00
2022-12-11T09:06:15.429Z,91.97
2022-12-11T09:08:50.229Z,90.70
2022-12-11T09:11:26.707Z,90.13
2022-12-11T09:13:53.915Z,90.86
2022-12-11T09:16:23.117Z,90.93
2022-12-11T09:18:51.979Z,91.44
2022-12-11T09:21:21.263Z,89.60
2022-12-11T09:23:48.826Z,90.83
2022-12-11T09:26:17.805Z,91.15
2022-12-11T09:28:47.043Z,91.05
2022-12-11T09:31:15.473Z,91.61
2022-12-11T09:33:42.722Z,90.94
2022-12-11T09:36:10.531Z,89.66
2022-12-11T09:38:37.685Z,89.65
2022-12-11T09:41:38.622Z,90.75
2022-12-11T09:44:11.443Z,89.94
2022-12-11T09:46:40.776Z,90.86
2022-12-11T09:49:22.071Z,90.54
2022-12-11T09:52:17.303Z,90.66
2022-12-11T09:54:50.396Z,90.43
2022-12-11T09:57:32.935Z,91.21
2022-12-11T10:00:06.505Z,91.60
2022-12-11T10:03:01.091Z,90.20
2022-12-11T10:05:43.122Z,91.10
2022-12-11T10:08:28.543Z,91.08
2022-12-11T10:11:33.123Z,90.10
2022-12-11T10:14:11.586Z,89.73
2022-12-11T10:16:43.950Z,89.77
2022-12-11T10:19:23.460Z,89.74
2022-12-11T10:21:52.700Z,88.48
2022-12-11T10:24:42.226Z,89.55
2022-12-11T10:27:21.456Z,89.31
2022-12-11T10:30:02.841Z,87.84
2022-12-11T10:33:09.766Z,88.10
2022-12-11T10:35:43.913Z,88.58
2022-12-11T10:38:14.045Z,87.51
2022-12-11T10:40:49.369Z,87.78
2022-12-11T10:43:16.469Z,88.42
2022-12-11T10:45:54.829Z,87.30
2022-12-11T10:48:22.347Z,87.80
2022-12-11T10:51:04.257Z,87.59
2022-12-11T10:53:33.463Z,88.15
2022-12-11T10:56:01.808Z,87.00
2022-12-11T10:58:33.996Z,86.28
2022-12-11T11:01:07.004Z,88.54
2022-12-11T11:03:36.402Z,88.25
2022-12-11T11:06:04.983Z,86.90
2022-12-11T11:08:44.718Z,87.39
2022-12-11T11:11:21.060Z,85.59
2022-12-11T11:13:47.890Z,85.91
2022-12-11T11:16:18.815Z,85.44
2022-12-11T11:18:57.646Z,85.83
2022-12-11T11:21:26.543Z,86.25
2022-12-11T11:23:54.303Z,86.78
2022-12-11T11:26:38.303Z,86.39
2022-12-11T11:29:25.786Z,85.52
2022-12-11T11:31:52.807Z,85.42
2022-12-11T11:34:22.340Z,85.04
2022-12-11T11:36:57.941Z,85.05
2022-12-11T11:39:35.882Z,85.53
2022-12-11T11:42:20.957Z,85.43
2022-12-11T11:45:04.102Z,84.93
2022-12-11T11:47:38.040Z,84.79
2022-12-11T11:50:24.614Z,84.17
2022-12-11T11:53:12.791Z,83.50
2022-12-11T11:56:07.571Z,83.86
2022-12-11T11:58:52.560Z,84.09
2022-12-11T12:01:22.008Z,84.82
2022-12-11T12:03:50.518Z,85.34
2022-12-11T12:06:23.023Z,83.99
2022-12-11T12:09:06.103Z,84.02
2022-12-11T12:12:00.265Z,84.57
2022-12-11T12:14:52.078Z,84.19
2022-12-11T12:17:26.513Z,84.50
2022-12-11T12:20:18.262Z,83.45
2022-12-11T12:22:57.049Z,83.80
2022-12-11T12:25:40.607Z,84.16
2022-12-11T12:28:29.625Z,84.54
2022-12-11T12:31:05.705Z,84.81
2022-12-11T12:34:06.924Z,83.51
2022-12-11T12:36:53.910Z,83.96
2022-12-11T12:40:09.179Z,83.58
2022-12-11T12:42:42.061Z,84.13
2022-12-11T12:45:14.801Z,85.03
2022-12-11T12:47:51.967Z,84.46
2022-12-11T12:50:24.171Z,84.74
2022-12-11T12:52:53.054Z,84.76
2022-12-11T12:55:24.250Z,83.79
2022-12-11T12:57:55.208Z,85.08
2022-12-11T13:00:35.606Z,84.99
2022-12-11T13:03:13.410Z,84.58
2022-12-11T13:05:43.723Z,84.37
2022-12-11T13:08:11.997Z,83.83
2022-12-11T13:10:41.766Z,83.91
2022-12-11T13:13:55.222Z,84.40
2022-12-11T13:16:25.835Z,82.65
2022-12-11T13:18:54.073Z,83.72
2022-12-11T13:21:34.910Z,83.92
2022-12-11T13:24:25.328Z,83.67
2022-12-11T13:26:52.417Z,82.86
2022-12-11T13:29:37.804Z,82.86
2022-12-11T13:32:10.531Z,82.65
2022-12-11T13:34:43.053Z,83.27
2022-12-11T13:37:31.974Z,83.40
2022-12-11T13:40:00.402Z,83.68
2022-12-11T13:42:33.339Z,83.73
2022-12-11T13:45:01.976Z,84.02
2022-12-11T13:47:32.650Z,83.68
2022-12-11T13:50:18.312Z,83.13
2022-12-11T13:52:57.670Z,83.10
2022-12-11T13:55:30.526Z,82.62
2022-12-11T13:57:58.191Z,83.53
2022-12-11T14:00:30.404Z,83.65
2022-12-11T14:03:02.028Z,83.85
2022-12-11T14:05:29.802Z,83.40
2022-12-11T14:07:59.692Z,83.55
2022-12-11T14:10:29.812Z,83.46
2022-12-11T14:13:01.662Z,83.16
2022-12-11T14:15:30.298Z,83.35
2022-12-11T14:17:59.423Z,83.28
2022-12-11T14:20:29.760Z,83.04
2022-12-11T14:23:05.792Z,82.43
2022-12-11T14:25:32.683Z,82.60
2022-12-11T14:28:01.931Z,84.01
2022-12-11T14:30:32.226Z,82.40
2022-12-11T14:33:05.469Z,82.97
2022-12-11T14:35:38.871Z,82.12
2022-12-11T14:38:29.382Z,81.29
2022-12-11T14:41:06.338Z,81.81
2022-12-11T14:43:38.997Z,81.50
2022-12-11T14:46:16.764Z,81.29
2022-12-11T14:49:12.058Z,81.94
2022-12-11T14:51:41.696Z,81.67
2022-12-11T14:54:20.526Z,82.28
2022-12-11T14:56:47.649Z,81.94
2022-12-11T14:59:26.936Z,81.41
2022-12-11T15:02:08.240Z,82.08
2022-12-11T15:04:35.693Z,82.11
2022-12-11T15:07:02.590Z,81.99
2022-12-11T15:09:40.840Z,81.73
2022-12-11T15:12:14.593Z,82.31
2022-12-11T15:14:54.333Z,81.04
2022-12-11T15:17:26.336Z,80.83
2022-12-11T15:20:07.996Z,82.04
2022-12-11T15:22:36.717Z,81.14
2022-12-11T15:25:04.725Z,80.62
2022-12-11T15:27:36.698Z,81.37
2022-12-11T15:33:22.289Z,82.28
2022-12-11T15:36:30.717Z,82.72
2022-12-11T15:38:59.999Z,82.46
2022-12-11T15:41:28.863Z,81.49
2022-12-11T15:44:01.420Z,82.40
2022-12-11T15:46:28.992Z,82.21
2022-12-11T15:48:57.669Z,82.46
2022-12-11T15:51:25.917Z,83.07
2022-12-11T15:53:52.787Z,82.85
2022-12-11T15:56:19.716Z,83.07
2022-12-11T15:58:48.008Z,83.58
2022-12-11T16:01:15.049Z,83.44
2022-12-11T16:03:42.834Z,82.91
2022-12-11T16:06:13.252Z,83.74
2022-12-11T16:08:40.187Z,82.91
2022-12-11T16:11:08.358Z,82.77
2022-12-11T16:13:35.809Z,82.89
2022-12-11T16:16:04.353Z,82.97
2022-12-11T16:18:32.604Z,82.57
2022-12-11T16:21:06.404Z,82.73
2022-12-11T16:23:33.258Z,82.61
2022-12-11T16:26:06.999Z,82.49
2022-12-11T16:28:34.217Z,82.11
2022-12-11T16:31:01.996Z,82.50
2022-12-11T16:33:29.220Z,82.34
2022-12-11T16:35:59.361Z,81.98
2022-12-11T16:38:26.764Z,82.08
2022-12-11T16:41:03.487Z,82.58
2022-12-11T16:43:32.403Z,82.20
2022-12-11T16:46:00.075Z,82.58
2022-12-11T16:48:27.291Z,82.65
2022-12-11T16:50:54.818Z,82.76
2022-12-11T16:53:22.581Z,82.28
2022-12-11T16:55:50.445Z,82.05
2022-12-11T16:58:20.636Z,82.51
2022-12-11T17:00:48.653Z,82.87
2022-12-11T17:03:16.472Z,82.10
2022-12-11T17:05:44.003Z,82.47
2022-12-11T17:08:11.192Z,82.25
2022-12-11T17:10:42.509Z,82.27
2022-12-11T17:13:09.587Z,82.05
2022-12-11T17:15:41.129Z,82.35
2022-12-11T17:18:13.222Z,82.02
2022-12-11T17:20:44.769Z,83.16
2022-12-11T17:23:15.267Z,83.70
2022-12-11T17:25:45.332Z,83.47
2022-12-11T17:28:13.668Z,82.89
2022-12-11T17:30:42.407Z,82.37
2022-12-11T17:33:11.442Z,82.88
2022-12-11T17:35:39.178Z,83.02
2022-12-11T17:38:06.973Z,82.41
2022-12-11T17:40:35.184Z,82.52
2022-12-11T17:43:07.010Z,82.31
2022-12-11T17:45:35.933Z,82.01
2022-12-11T17:48:03.717Z,82.59
2022-12-11T17:50:33.460Z,82.62
2022-12-11T17:53:00.858Z,83.23
2022-12-11T17:55:28.075Z,82.82
2022-12-11T17:57:55.486Z,84.00
2022-12-11T18:00:24.582Z,81.26
2022-12-11T18:02:53.774Z,81.45
2022-12-11T18:05:22.396Z,82.23
2022-12-11T18:07:57.309Z,81.51
2022-12-11T18:10:25.548Z,81.69
2022-12-11T18:12:52.831Z,81.69
2022-12-11T18:15:19.918Z,81.77
2022-12-11T18:17:47.226Z,82.62
2022-12-11T18:20:16.175Z,83.16
2022-12-11T18:22:43.930Z,81.86
2022-12-11T18:25:12.510Z,82.41
2022-12-11T18:27:40.328Z,82.36
2022-12-11T18:30:11.446Z,82.36
2022-12-11T18:32:45.526Z,82.30
2022-12-11T18:35:13.637Z,81.69
2022-12-11T18:37:41.689Z,81.79
2022-12-11T18:40:12.381Z,81.58
2022-12-11T18:42:39.742Z,81.49
2022-12-11T18:45:07.515Z,81.64
2022-12-11T18:47:35.135Z,82.50
2022-12-11T18:50:07.700Z,81.93
2022-12-11T18:52:38.668Z,81.27
2022-12-11T18:55:07.055Z,81.70
2022-12-11T18:57:34.856Z,81.58
2022-12-11T19:00:08.804Z,81.63
2022-12-11T19:02:36.504Z,81.22
2022-12-11T19:05:05.388Z,81.38
2022-12-11T19:07:33.192Z,81.90
2022-12-11T19:10:04.928Z,81.53
2022-12-11T19:12:32.747Z,81.74
2022-12-11T19:15:00.448Z,80.99
2022-12-11T19:17:29.085Z,81.28
2022-12-11T19:19:57.657Z,81.87
2022-12-11T19:22:28.143Z,81.10
2022-12-11T19:24:55.845Z,82.04
2022-12-11T19:27:26.494Z,81.78
2022-12-11T19:29:54.450Z,81.00
2022-12-11T19:32:21.767Z,80.69
2022-12-11T19:34:53.930Z,81.09
2022-12-11T19:37:22.369Z,81.81
2022-12-11T19:39:51.308Z,82.38
2022-12-11T19:42:19.334Z,81.52
2022-12-11T19:44:47.383Z,81.56
2022-12-11T19:47:15.189Z,81.67
2022-12-11T19:49:43.160Z,81.81
2022-12-11T19:52:13.203Z,81.42
2022-12-11T19:54:40.343Z,82.47
2022-12-11T19:57:08.602Z,81.67
2022-12-11T19:59:37.371Z,82.24
2022-12-11T20:02:06.806Z,81.27
2022-12-11T20:04:34.488Z,82.09
2022-12-11T20:07:02.215Z,81.50
2022-12-11T20:09:31.466Z,81.89
2022-12-11T20:12:00.497Z,82.87
2022-12-11T20:14:28.525Z,82.53
2022-12-11T20:17:15.181Z,82.02
2022-12-11T20:19:43.706Z,82.00
2022-12-11T20:22:11.542Z,81.71
2022-12-11T20:24:39.548Z,82.25
2022-12-11T20:27:07.177Z,82.36
2022-12-11T20:29:34.790Z,82.47
2022-12-11T20:32:03.802Z,82.81
2022-12-11T20:34:32.514Z,82.66
2022-12-11T20:37:00.846Z,82.55
2022-12-11T20:39:29.602Z,83.00
2022-12-11T20:41:57.238Z,83.46
2022-12-11T20:44:24.790Z,83.73
2022-12-11T20:46:52.412Z,84.36
2022-12-11T20:49:19.830Z,84.02
2022-12-11T20:51:47.154Z,84.64
2022-12-11T20:54:14.282Z,84.04
2022-12-11T20:56:43.287Z,84.08
2022-12-11T20:59:11.752Z,84.25
2022-12-11T21:01:40.903Z,84.57
2022-12-11T21:04:10.513Z,85.03
2022-12-11T21:06:40.620Z,84.53
2022-12-11T21:09:18.308Z,84.61
2022-12-11T21:11:45.577Z,84.99
2022-12-11T21:14:13.586Z,86.28
2022-12-11T21:16:40.654Z,85.69
2022-12-11T21:19:11.303Z,86.17
2022-12-11T21:21:43.559Z,86.29
2022-12-11T21:24:17.769Z,86.11
2022-12-11T21:26:45.930Z,86.14
2022-12-11T21:29:13.702Z,86.57
2022-12-11T21:31:43.094Z,87.42
2022-12-11T21:34:11.975Z,87.10
2022-12-11T21:36:38.963Z,87.73
2022-12-11T21:39:06.826Z,87.86
2022-12-11T21:41:34.082Z,88.05
2022-12-11T21:46:47.840Z,89.08
2022-12-11T21:49:15.130Z,89.74
2022-12-11T21:51:46.893Z,89.62
2022-12-11T21:54:16.730Z,88.92
2022-12-11T21:56:43.933Z,88.80
2022-12-11T21:59:10.877Z,89.35
2022-12-11T22:01:42.111Z,89.01
2022-12-11T22:04:10.770Z,88.92
2022-12-11T22:06:37.685Z,89.09
2022-12-11T22:09:05.306Z,88.79
2022-12-11T22:11:34.451Z,88.63
2022-12-11T22:14:01.784Z,87.84
2022-12-11T22:16:28.933Z,88.56
2022-12-11T22:18:55.851Z,88.66
2022-12-11T22:21:22.868Z,88.99
2022-12-11T22:23:50.011Z,89.04
2022-12-11T22:26:25.662Z,89.27
2022-12-11T22:28:53.276Z,88.73
2022-12-11T22:31:22.366Z,89.15
2022-12-11T22:33:51.249Z,89.21
2022-12-11T22:36:19.043Z,89.74
2022-12-11T22:38:47.095Z,89.87
2022-12-11T22:41:22.339Z,90.43
2022-12-11T22:43:49.822Z,90.66
2022-12-11T22:46:18.522Z,90.69
2022-12-11T22:48:45.391Z,90.48
2022-12-11T22:51:12.559Z,91.55
2022-12-11T22:53:39.432Z,91.88
2022-12-11T22:56:08.539Z,92.23
2022-12-11T22:58:35.682Z,92.48
2022-12-11T23:01:03.558Z,93.54
2022-12-11T23:03:30.540Z,92.30
2022-12-11T23:06:00.768Z,92.86
2022-12-11T23:08:30.747Z,93.12
2022-12-11T23:10:57.628Z,94.02
2022-12-11T23:13:24.528Z,95.38
2022-12-11T23:15:51.368Z,93.86
2022-12-11T23:18:18.195Z,95.27
2022-12-11T23:20:45.280Z,95.11
2022-12-11T23:23:12.226Z,95.47
2022-12-11T23:25:39.246Z,94.19
2022-12-11T23:28:06.133Z,94.63
2022-12-11T23:30:33.022Z,94.17
2022-12-11T23:32:59.876Z,94.32
2022-12-11T23:35:26.772Z,93.98
2022-12-11T23:37:53.707Z,93.81
2022-12-11T23:40:20.818Z,94.76
2022-12-11T23:42:50.287Z,94.97
2022-12-11T23:45:17.204Z,94.35
2022-12-11T23:47:44.161Z,94.61
2022-12-11T23:50:14.050Z,95.52
2022-12-11T23:52:40.896Z,94.91
2022-12-11T23:55:08.587Z,95.44
2022-12-11T23:57:35.694Z,95.17
